Powells Store, North Carolina
Current Conditions -  °F | °C
As of 2:53 AM on Sunday 26 Oct 2014 (Local Time) from KDAN Reporting Station
Clear Clear  
Wind Chill: 54°   Ceiling: Unl
Heat Index: 54°   Visibility: 10mi
Dew Point: 47°   Wind: 7mph
Humidity: 77%   Direction: 250°WSW
Pressure: 29.84"   Gusts: NA
Location:  36.4355°N, 79.5464°W
Report Text: KDAN 260653Z AUTO 25006KT 10SM CLR 12/08 A2984 RMK AO2 SLP097 T01220083
Loading
Personal Weather Stations






























Interactive Weather Map
Tropical Storm Tracking
New forecast layout! Learn more

10-Day Weather Forecast

Advertisements
Track Severe Weather on mobile